createdAt,value
2019-01-22T00:00:45.439Z,-9
2019-01-22T00:01:52.657Z,-9
2019-01-22T00:02:59.859Z,-9
2019-01-22T00:04:07.305Z,-9
2019-01-22T00:05:14.234Z,-9
2019-01-22T00:06:21.670Z,-9.1
2019-01-22T00:07:28.867Z,-9.1
2019-01-22T00:08:36.299Z,-9.1
2019-01-22T00:09:43.526Z,-9.1
2019-01-22T00:10:50.718Z,-9.1
2019-01-22T00:11:57.943Z,-9.1
2019-01-22T00:13:05.171Z,-9.1
2019-01-22T00:14:12.384Z,-9.1
2019-01-22T00:15:19.814Z,-9.1
2019-01-22T00:16:27.019Z,-9.1
2019-01-22T00:17:34.171Z,-9.1
2019-01-22T00:18:40.945Z,-9.1
2019-01-22T00:19:48.409Z,-9.1
2019-01-22T00:20:56.078Z,-9.1
2019-01-22T00:22:04.052Z,-9.1
2019-01-22T00:23:12.190Z,-9.1
2019-01-22T00:24:20.267Z,-9.2
2019-01-22T00:25:28.378Z,-9.2
2019-01-22T00:26:36.193Z,-9.1
2019-01-22T00:27:44.184Z,-9.1
2019-01-22T00:28:52.329Z,-9.1
2019-01-22T00:30:00.465Z,-9.2
2019-01-22T00:31:08.538Z,-9.2
2019-01-22T00:32:16.841Z,-9.2
2019-01-22T00:33:25.063Z,-9.3
2019-01-22T00:34:33.438Z,-9.3
2019-01-22T00:35:42.143Z,-9.3
2019-01-22T00:36:50.110Z,-9.3
2019-01-22T00:37:58.379Z,-9.3
2019-01-22T00:39:06.747Z,-9.3
2019-01-22T00:40:15.049Z,-9.3
2019-01-22T00:41:23.420Z,-9.4
2019-01-22T00:42:31.668Z,-9.3
2019-01-22T00:43:39.972Z,-9.2
2019-01-22T00:44:48.371Z,-9.3
2019-01-22T00:45:56.603Z,-9.4
2019-01-22T00:47:04.854Z,-9.3
2019-01-22T00:48:13.269Z,-9.3
2019-01-22T00:49:21.561Z,-9.3
2019-01-22T00:50:29.678Z,-9.3
2019-01-22T00:51:37.674Z,-9.2
2019-01-22T00:52:45.650Z,-9.2
2019-01-22T00:53:53.719Z,-9.2
2019-01-22T00:55:02.076Z,-9.2
2019-01-22T00:56:10.331Z,-9.2
2019-01-22T00:57:18.315Z,-9.2
2019-01-22T00:58:26.427Z,-9.2
2019-01-22T00:59:34.740Z,-9.3
2019-01-22T01:00:42.876Z,-9.3
2019-01-22T01:01:51.346Z,-9.2
2019-01-22T01:02:59.177Z,-9.2
2019-01-22T01:04:07.724Z,-9.2
2019-01-22T01:05:16.371Z,-9.2
2019-01-22T01:06:24.846Z,-9.2
2019-01-22T01:07:33.161Z,-9.3
2019-01-22T01:08:40.705Z,-9.3
2019-01-22T01:09:49.028Z,-9.4
2019-01-22T01:10:57.364Z,-9.4
2019-01-22T01:12:06.003Z,-9.5
2019-01-22T01:13:14.010Z,-9.5
2019-01-22T01:14:22.610Z,-9.5
2019-01-22T01:15:30.943Z,-9.5
2019-01-22T01:16:39.512Z,-9.5
2019-01-22T01:17:47.908Z,-9.5
2019-01-22T01:18:56.410Z,-9.5
2019-01-22T01:20:04.835Z,-9.5
2019-01-22T01:21:12.587Z,-9.4
2019-01-22T01:22:20.681Z,-9.5
2019-01-22T01:23:28.733Z,-9.6
2019-01-22T01:24:36.265Z,-9.6
2019-01-22T01:25:43.206Z,-9.5
2019-01-22T01:26:50.400Z,-9.5
2019-01-22T01:27:57.870Z,-9.5
2019-01-22T01:29:05.077Z,-9.5
2019-01-22T01:30:12.510Z,-9.5
2019-01-22T01:31:19.704Z,-9.6
2019-01-22T01:32:26.906Z,-9.5
2019-01-22T01:33:34.104Z,-9.5
2019-01-22T01:34:41.315Z,-9.5
2019-01-22T01:35:48.266Z,-9.6
2019-01-22T01:36:55.485Z,-9.6
2019-01-22T01:38:02.672Z,-9.6
2019-01-22T01:39:10.102Z,-9.5
2019-01-22T01:40:17.344Z,-9.6
2019-01-22T01:41:24.511Z,-9.6
2019-01-22T01:42:31.435Z,-9.7
2019-01-22T01:43:38.637Z,-9.7
2019-01-22T01:44:45.853Z,-9.7
2019-01-22T01:45:53.059Z,-9.6
2019-01-22T01:47:00.276Z,-9.6
2019-01-22T01:48:07.234Z,-9.6
2019-01-22T01:49:14.451Z,-9.7
2019-01-22T01:50:21.666Z,-9.7
2019-01-22T01:51:28.888Z,-9.7
2019-01-22T01:52:36.085Z,-9.7
2019-01-22T01:53:43.021Z,-9.7
2019-01-22T01:54:50.222Z,-9.7
2019-01-22T01:55:57.440Z,-9.7
2019-01-22T01:57:04.681Z,-9.6
2019-01-22T01:58:11.896Z,-9.6
2019-01-22T01:59:19.117Z,-9.6
2019-01-22T02:00:26.307Z,-9.6
2019-01-22T02:01:33.736Z,-9.6
2019-01-22T02:02:40.945Z,-9.6
2019-01-22T02:03:48.358Z,-9.6
2019-01-22T02:04:55.551Z,-9.6
2019-01-22T02:06:02.743Z,-9.6
2019-01-22T02:07:09.955Z,-9.7
2019-01-22T02:08:17.175Z,-9.7
2019-01-22T02:09:24.414Z,-9.7
2019-01-22T02:10:31.358Z,-9.7
2019-01-22T02:11:38.561Z,-9.8
2019-01-22T02:12:45.999Z,-9.9
2019-01-22T02:13:53.197Z,-9.8
2019-01-22T02:15:00.746Z,-9.7
2019-01-22T02:16:07.960Z,-9.7
2019-01-22T02:17:15.157Z,-9.7
2019-01-22T02:18:21.821Z,-9.6
2019-01-22T02:19:29.256Z,-9.7
2019-01-22T02:20:36.663Z,-9.7
2019-01-22T02:21:44.250Z,-9.8
2019-01-22T02:22:51.830Z,-9.8
2019-01-22T02:23:59.738Z,-9.8
2019-01-22T02:25:07.600Z,-9.8
2019-01-22T02:26:15.600Z,-9.8
2019-01-22T02:27:23.676Z,-9.8
2019-01-22T02:28:31.720Z,-9.8
2019-01-22T02:29:39.629Z,-9.8
2019-01-22T02:30:47.569Z,-9.9
2019-01-22T02:31:55.583Z,-9.9
2019-01-22T02:33:03.551Z,-9.8
2019-01-22T02:34:11.694Z,-9.9
2019-01-22T02:35:19.938Z,-10
2019-01-22T02:36:28.014Z,-10
2019-01-22T02:37:36.013Z,-10.1
2019-01-22T02:38:43.954Z,-10
2019-01-22T02:39:52.176Z,-10
2019-01-22T02:41:01.181Z,-10
2019-01-22T02:42:08.974Z,-9.9
2019-01-22T02:43:17.344Z,-9.9
2019-01-22T02:44:25.651Z,-9.9
2019-01-22T02:45:33.809Z,-10
2019-01-22T02:46:41.994Z,-9.9
2019-01-22T02:47:50.007Z,-9.9
2019-01-22T02:48:58.093Z,-9.8
2019-01-22T02:50:06.224Z,-9.8
2019-01-22T02:51:14.549Z,-9.8
2019-01-22T02:52:22.713Z,-9.8
2019-01-22T02:53:38.511Z,-9.7
2019-01-22T02:54:45.842Z,-9.7
2019-01-22T02:55:53.282Z,-9.8
2019-01-22T02:57:00.226Z,-9.8
2019-01-22T02:58:07.674Z,-9.9
2019-01-22T02:59:15.011Z,-9.9
2019-01-22T03:00:22.351Z,-10
2019-01-22T03:01:29.887Z,-10
2019-01-22T03:02:37.246Z,-10
2019-01-22T03:03:45.117Z,-9.9
2019-01-22T03:04:53.195Z,-9.9
2019-01-22T03:06:01.390Z,-9.9
2019-01-22T03:07:09.630Z,-9.9
2019-01-22T03:08:17.777Z,-9.9
2019-01-22T03:09:25.981Z,-9.9
2019-01-22T03:10:34.641Z,-10
2019-01-22T03:11:43.049Z,-10
2019-01-22T03:12:50.658Z,-10.1
2019-01-22T03:13:58.420Z,-10.1
2019-01-22T03:15:06.239Z,-10.1
2019-01-22T03:16:14.116Z,-10.1
2019-01-22T03:17:22.376Z,-10.1
2019-01-22T03:18:30.532Z,-10
2019-01-22T03:19:38.693Z,-9.9
2019-01-22T03:20:46.773Z,-9.9
2019-01-22T03:21:54.929Z,-9.9
2019-01-22T03:23:03.334Z,-9.9
2019-01-22T03:24:11.679Z,-9.9
2019-01-22T03:25:19.716Z,-9.9
2019-01-22T03:26:27.887Z,-10
2019-01-22T03:27:36.284Z,-10
2019-01-22T03:28:44.327Z,-10
2019-01-22T03:29:52.777Z,-10
2019-01-22T03:31:00.994Z,-10
2019-01-22T03:32:08.987Z,-10
2019-01-22T03:33:17.215Z,-10
2019-01-22T03:34:26.533Z,-10
2019-01-22T03:35:34.514Z,-10.1
2019-01-22T03:36:42.338Z,-10.2
2019-01-22T03:37:50.250Z,-10.3
2019-01-22T03:38:58.426Z,-10.2
2019-01-22T03:40:06.358Z,-10.2
2019-01-22T03:41:14.361Z,-10.1
2019-01-22T03:42:21.812Z,-10.1
2019-01-22T03:43:29.913Z,-10.1
2019-01-22T03:44:37.894Z,-10.1
2019-01-22T03:45:45.554Z,-10.1
2019-01-22T03:46:53.632Z,-10
2019-01-22T03:48:01.574Z,-10
2019-01-22T03:49:09.445Z,-10.1
2019-01-22T03:50:17.112Z,-10.1
2019-01-22T03:51:24.946Z,-10.2
2019-01-22T03:52:32.977Z,-10.2
2019-01-22T03:53:40.771Z,-10.2
2019-01-22T03:54:48.626Z,-10.1
2019-01-22T03:55:56.411Z,-10.1
2019-01-22T03:57:04.265Z,-10.1
2019-01-22T03:58:12.201Z,-10.1
2019-01-22T03:59:20.111Z,-10
2019-01-22T04:00:27.924Z,-10
2019-01-22T04:01:35.645Z,-10
2019-01-22T04:02:43.516Z,-10.1
2019-01-22T04:03:51.837Z,-10.1
2019-01-22T04:04:59.947Z,-10.2
2019-01-22T04:06:08.248Z,-10.3
2019-01-22T04:07:16.589Z,-10.3
2019-01-22T04:08:24.397Z,-10.3
2019-01-22T04:09:32.457Z,-10.3
2019-01-22T04:10:40.507Z,-10.3
2019-01-22T04:11:48.470Z,-10.2
2019-01-22T04:12:56.323Z,-10.2
2019-01-22T04:14:04.411Z,-10.3
2019-01-22T04:15:12.388Z,-10.3
2019-01-22T04:16:20.298Z,-10.4
2019-01-22T04:17:28.367Z,-10.3
2019-01-22T04:18:36.740Z,-10.3
2019-01-22T04:19:45.204Z,-10.2
2019-01-22T04:20:53.414Z,-10.2
2019-01-22T04:22:01.648Z,-10.1
2019-01-22T04:23:09.967Z,-10.2
2019-01-22T04:24:18.094Z,-10.2
2019-01-22T04:25:26.022Z,-10.2
2019-01-22T04:26:34.237Z,-10.2
2019-01-22T04:27:42.084Z,-10.3
2019-01-22T04:28:50.025Z,-10.3
2019-01-22T04:29:57.926Z,-10.3
2019-01-22T04:31:05.288Z,-10.3
2019-01-22T04:32:13.538Z,-10.4
2019-01-22T04:33:21.783Z,-10.4
2019-01-22T04:34:29.213Z,-10.4
2019-01-22T04:35:37.498Z,-10.3
2019-01-22T04:36:45.224Z,-10.3
2019-01-22T04:37:53.222Z,-10.2
2019-01-22T04:39:00.878Z,-10.2
2019-01-22T04:40:08.512Z,-10.1
2019-01-22T04:41:16.506Z,-10.1
2019-01-22T04:42:24.702Z,-10
2019-01-22T04:43:32.931Z,-9.9
2019-01-22T04:44:40.500Z,-9.9
2019-01-22T04:45:48.664Z,-9.8
2019-01-22T04:46:56.623Z,-9.8
2019-01-22T04:48:04.630Z,-9.7
2019-01-22T04:49:12.231Z,-9.6
2019-01-22T04:50:20.153Z,-9.6
2019-01-22T04:51:28.201Z,-9.5
2019-01-22T04:52:36.012Z,-9.4
2019-01-22T04:53:44.111Z,-9.4
2019-01-22T04:54:52.039Z,-9.3
2019-01-22T04:55:59.579Z,-9.3
2019-01-22T04:57:07.737Z,-9.2
2019-01-22T04:58:15.398Z,-9.2
2019-01-22T04:59:23.672Z,-9.1
2019-01-22T05:00:31.416Z,-9.1
2019-01-22T05:01:39.059Z,-9.1
2019-01-22T05:02:46.779Z,-9.1
2019-01-22T05:03:54.767Z,-9.1
2019-01-22T05:05:03.014Z,-9.1
2019-01-22T05:06:10.719Z,-9.1
2019-01-22T05:07:19.110Z,-9
2019-01-22T05:08:26.985Z,-9
2019-01-22T05:09:35.022Z,-9
2019-01-22T05:10:42.873Z,-9
2019-01-22T05:11:50.930Z,-8.9
2019-01-22T05:12:58.706Z,-8.9
2019-01-22T05:14:06.830Z,-8.9
2019-01-22T05:15:14.675Z,-8.9
2019-01-22T05:16:22.730Z,-8.8
2019-01-22T05:17:30.679Z,-8.8
2019-01-22T05:18:38.704Z,-8.8
2019-01-22T05:19:46.203Z,-8.8
2019-01-22T05:20:54.168Z,-8.7
2019-01-22T05:22:02.032Z,-8.7
2019-01-22T05:23:10.109Z,-8.6
2019-01-22T05:24:18.855Z,-8.6
2019-01-22T05:25:26.556Z,-8.6
2019-01-22T05:26:34.149Z,-8.6
2019-01-22T05:27:42.036Z,-8.5
2019-01-22T05:28:49.844Z,-8.5
2019-01-22T05:29:57.606Z,-8.5
2019-01-22T05:31:05.310Z,-8.5
2019-01-22T05:32:13.469Z,-8.5
2019-01-22T05:33:21.125Z,-8.4
2019-01-22T05:34:30.181Z,-8.4
2019-01-22T05:35:37.842Z,-8.3
2019-01-22T05:36:45.379Z,-8.3
2019-01-22T05:37:53.187Z,-8.3
2019-01-22T05:39:01.228Z,-8.2
2019-01-22T05:40:09.236Z,-8.2
2019-01-22T05:41:17.252Z,-8.2
2019-01-22T05:42:25.405Z,-8.2
2019-01-22T05:43:33.901Z,-8.1
2019-01-22T05:44:42.278Z,-8.1
2019-01-22T05:45:50.725Z,-8.1
2019-01-22T05:46:58.817Z,-8
2019-01-22T05:48:13.766Z,-8
2019-01-22T05:49:21.156Z,-8
2019-01-22T05:50:28.683Z,-8
2019-01-22T05:51:36.536Z,-8
2019-01-22T05:52:44.259Z,-8
2019-01-22T05:53:51.458Z,-8
2019-01-22T05:54:58.726Z,-8
2019-01-22T05:56:05.938Z,-8
2019-01-22T05:57:13.161Z,-8
2019-01-22T05:58:20.091Z,-8
2019-01-22T05:59:27.317Z,-7.9
2019-01-22T06:00:34.513Z,-7.8
2019-01-22T06:01:41.709Z,-7.8
2019-01-22T06:02:48.918Z,-7.7
2019-01-22T06:03:55.854Z,-7.6
2019-01-22T06:05:03.048Z,-7.6
2019-01-22T06:06:09.708Z,-7.6
2019-01-22T06:07:16.912Z,-7.6
2019-01-22T06:08:24.111Z,-7.5
2019-01-22T06:09:31.320Z,-7.4
2019-01-22T06:10:38.515Z,-7.4
2019-01-22T06:11:45.713Z,-7.3
2019-01-22T06:12:52.646Z,-7.3
2019-01-22T06:13:59.841Z,-7.3
2019-01-22T06:15:07.069Z,-7.2
2019-01-22T06:16:14.285Z,-7.2
2019-01-22T06:17:21.491Z,-7.2
2019-01-22T06:18:28.418Z,-7.1
2019-01-22T06:19:35.616Z,-7.1
2019-01-22T06:20:42.827Z,-7.1
2019-01-22T06:21:50.028Z,-7.1
2019-01-22T06:22:57.232Z,-7.1
2019-01-22T06:24:04.437Z,-7.1
2019-01-22T06:25:11.645Z,-7
2019-01-22T06:26:18.852Z,-7
2019-01-22T06:27:26.055Z,-7
2019-01-22T06:28:33.255Z,-6.9
2019-01-22T06:29:40.178Z,-6.9
2019-01-22T06:30:47.369Z,-6.9
2019-01-22T06:31:54.574Z,-6.9
2019-01-22T06:33:01.765Z,-6.9
2019-01-22T06:34:08.966Z,-6.9
2019-01-22T06:35:16.177Z,-6.8
2019-01-22T06:36:23.377Z,-6.8
2019-01-22T06:37:30.596Z,-6.8
2019-01-22T06:38:37.784Z,-6.8
2019-01-22T06:39:44.995Z,-6.8
2019-01-22T06:40:51.636Z,-6.7
2019-01-22T06:41:58.851Z,-6.7
2019-01-22T06:43:06.068Z,-6.7
2019-01-22T06:44:13.264Z,-6.7
2019-01-22T06:45:20.182Z,-6.7
2019-01-22T06:46:27.515Z,-6.7
2019-01-22T06:47:34.726Z,-6.7
2019-01-22T06:48:41.922Z,-6.7
2019-01-22T06:49:49.129Z,-6.7
2019-01-22T06:50:56.330Z,-6.7
2019-01-22T06:52:03.299Z,-6.6
2019-01-22T06:53:10.507Z,-6.6
2019-01-22T06:54:17.184Z,-6.6
2019-01-22T06:55:24.403Z,-6.5
2019-01-22T06:56:31.616Z,-6.6
2019-01-22T06:57:38.847Z,-6.5
2019-01-22T06:58:46.059Z,-6.5
2019-01-22T06:59:53.262Z,-6.5
2019-01-22T07:01:00.452Z,-6.5
2019-01-22T07:02:07.650Z,-6.5
2019-01-22T07:03:14.863Z,-6.4
2019-01-22T07:04:22.078Z,-6.4
2019-01-22T07:05:29.278Z,-6.4
2019-01-22T07:06:36.494Z,-6.4
2019-01-22T07:07:43.708Z,-6.4
2019-01-22T07:08:50.917Z,-6.4
2019-01-22T07:10:00.971Z,-6.4
2019-01-22T07:11:07.902Z,-6.4
2019-01-22T07:12:15.142Z,-6.3
2019-01-22T07:13:22.337Z,-6.3
2019-01-22T07:14:29.001Z,-6.3
2019-01-22T07:15:35.919Z,-6.3
2019-01-22T07:16:42.866Z,-6.2
2019-01-22T07:17:50.057Z,-6.2
2019-01-22T07:18:57.253Z,-6.2
2019-01-22T07:20:04.187Z,-6.2
2019-01-22T07:21:11.387Z,-6.2
2019-01-22T07:22:18.309Z,-6.1
2019-01-22T07:23:25.512Z,-6.2
2019-01-22T07:24:32.714Z,-6.2
2019-01-22T07:25:39.640Z,-6.1
2019-01-22T07:26:47.010Z,-6.1
2019-01-22T07:27:54.216Z,-6.1
2019-01-22T07:29:01.415Z,-6.1
2019-01-22T07:30:08.739Z,-6.1
2019-01-22T07:31:15.928Z,-6.1
2019-01-22T07:32:22.867Z,-6.1
2019-01-22T07:33:30.061Z,-6.1
2019-01-22T07:34:37.262Z,-6
2019-01-22T07:35:44.463Z,-6
2019-01-22T07:36:51.390Z,-6
2019-01-22T07:37:58.054Z,-6
2019-01-22T07:39:04.981Z,-6
2019-01-22T07:40:12.183Z,-6
2019-01-22T07:41:19.382Z,-5.9
2019-01-22T07:42:26.587Z,-5.9
2019-01-22T07:43:33.808Z,-5.9
2019-01-22T07:44:41.018Z,-5.9
2019-01-22T07:45:47.946Z,-5.9
2019-01-22T07:46:55.139Z,-5.9
2019-01-22T07:48:02.335Z,-5.9
2019-01-22T07:49:09.556Z,-5.9
2019-01-22T07:50:17.545Z,-5.9
2019-01-22T07:51:24.966Z,-5.9
2019-01-22T07:52:32.162Z,-5.9
2019-01-22T07:53:39.611Z,-5.9
2019-01-22T07:54:46.562Z,-5.8
2019-01-22T07:56:01.896Z,-5.9
2019-01-22T07:57:09.115Z,-5.8
2019-01-22T07:58:16.328Z,-5.8
2019-01-22T07:59:23.766Z,-5.8
2019-01-22T08:00:30.972Z,-5.8
2019-01-22T08:01:38.187Z,-5.8
2019-01-22T08:02:45.425Z,-5.8
2019-01-22T08:03:52.644Z,-5.8
2019-01-22T08:04:59.840Z,-5.8
2019-01-22T08:06:07.087Z,-5.7
2019-01-22T08:07:14.524Z,-5.7
2019-01-22T08:08:21.725Z,-5.7
2019-01-22T08:09:29.150Z,-5.7
2019-01-22T08:10:36.078Z,-5.7
2019-01-22T08:11:43.272Z,-5.7
2019-01-22T08:12:50.490Z,-5.7
2019-01-22T08:13:57.702Z,-5.7
2019-01-22T08:15:04.647Z,-5.7
2019-01-22T08:16:11.801Z,-5.7
2019-01-22T08:17:18.756Z,-5.6
2019-01-22T08:18:26.190Z,-5.6
2019-01-22T08:19:33.133Z,-5.6
2019-01-22T08:20:40.451Z,-5.6
2019-01-22T08:21:47.660Z,-5.5
2019-01-22T08:22:54.866Z,-5.5
2019-01-22T08:24:02.085Z,-5.4
2019-01-22T08:25:08.758Z,-5.4
2019-01-22T08:26:15.672Z,-5.4
2019-01-22T08:27:22.893Z,-5.4
2019-01-22T08:28:30.112Z,-5.4
2019-01-22T08:29:37.336Z,-5.4
2019-01-22T08:30:44.552Z,-5.4
2019-01-22T08:31:51.753Z,-5.4
2019-01-22T08:32:58.954Z,-5.4
2019-01-22T08:34:06.114Z,-5.3
2019-01-22T08:35:13.039Z,-5.3
2019-01-22T08:36:20.467Z,-5.3
2019-01-22T08:37:27.392Z,-5.3
2019-01-22T08:38:34.803Z,-5.3
2019-01-22T08:39:42.022Z,-5.4
2019-01-22T08:40:48.693Z,-5.4
2019-01-22T08:41:55.906Z,-5.4
2019-01-22T08:43:03.101Z,-5.4
2019-01-22T08:44:10.314Z,-5.3
2019-01-22T08:45:17.541Z,-5.3
2019-01-22T08:46:24.749Z,-5.2
2019-01-22T08:47:32.184Z,-5.2
2019-01-22T08:48:39.386Z,-5.1
2019-01-22T08:49:46.814Z,-5.1
2019-01-22T08:50:53.759Z,-5.1
2019-01-22T08:52:00.990Z,-5
2019-01-22T08:53:07.912Z,-5
2019-01-22T08:54:15.125Z,-5
2019-01-22T08:55:22.345Z,-5
2019-01-22T08:56:29.775Z,-5
2019-01-22T08:57:37.940Z,-5
2019-01-22T08:58:45.097Z,-5
2019-01-22T08:59:52.021Z,-4.9
2019-01-22T09:00:59.231Z,-4.9
2019-01-22T09:02:21.084Z,-4.9
2019-01-22T09:03:28.294Z,-5
2019-01-22T09:04:35.505Z,-5.1
2019-01-22T09:05:42.962Z,-5
2019-01-22T09:06:49.647Z,-5
2019-01-22T09:07:56.586Z,-5
2019-01-22T09:09:03.810Z,-4.9
2019-01-22T09:10:11.023Z,-4.9
2019-01-22T09:11:18.234Z,-4.9
2019-01-22T09:12:25.190Z,-4.9
2019-01-22T09:13:32.385Z,-4.9
2019-01-22T09:14:39.352Z,-4.9
2019-01-22T09:15:46.550Z,-4.9
2019-01-22T09:16:53.762Z,-4.9
2019-01-22T09:18:00.966Z,-4.9
2019-01-22T09:19:08.407Z,-4.9
2019-01-22T09:20:15.358Z,-4.9
2019-01-22T09:21:22.343Z,-4.9
2019-01-22T09:22:29.557Z,-4.9
2019-01-22T09:23:36.752Z,-4.9
2019-01-22T09:24:43.985Z,-4.9
2019-01-22T09:25:51.202Z,-4.9
2019-01-22T09:26:58.410Z,-4.9
2019-01-22T09:28:05.635Z,-4.9
2019-01-22T09:29:12.842Z,-4.9
2019-01-22T09:30:20.002Z,-4.8
2019-01-22T09:31:26.932Z,-4.8
2019-01-22T09:32:34.153Z,-4.8
2019-01-22T09:33:41.388Z,-4.8
2019-01-22T09:34:48.597Z,-4.8
2019-01-22T09:35:55.822Z,-4.7
2019-01-22T09:37:03.042Z,-4.8
2019-01-22T09:38:09.996Z,-4.8
2019-01-22T09:39:17.209Z,-4.7
2019-01-22T09:40:25.023Z,-4.7
2019-01-22T09:41:32.263Z,-4.6
2019-01-22T09:42:39.468Z,-4.5
2019-01-22T09:43:46.636Z,-4.5
2019-01-22T09:44:53.855Z,-4.6
2019-01-22T09:46:01.088Z,-4.6
2019-01-22T09:47:08.315Z,-4.5
2019-01-22T09:48:15.538Z,-4.4
2019-01-22T09:49:22.740Z,-4.4
2019-01-22T09:50:29.945Z,-4.3
2019-01-22T09:51:36.879Z,-4.2
2019-01-22T09:52:43.578Z,-4.1
2019-01-22T09:53:50.806Z,-4.1
2019-01-22T09:54:58.029Z,-4
2019-01-22T09:56:05.239Z,-4
2019-01-22T09:57:12.466Z,-3.9
2019-01-22T09:58:19.681Z,-3.9
2019-01-22T09:59:26.900Z,-3.9
2019-01-22T10:00:34.103Z,-3.8
2019-01-22T10:01:41.348Z,-3.9
2019-01-22T10:02:48.559Z,-3.8
2019-01-22T10:03:55.788Z,-3.8
2019-01-22T10:05:09.622Z,-3.7
2019-01-22T10:06:16.847Z,-3.7
2019-01-22T10:07:23.802Z,-3.6
2019-01-22T10:08:31.241Z,-3.6
2019-01-22T10:09:38.455Z,-3.6
2019-01-22T10:10:45.889Z,-3.6
2019-01-22T10:11:53.103Z,-3.6
2019-01-22T10:13:00.313Z,-3.5
2019-01-22T10:14:07.250Z,-3.4
2019-01-22T10:15:14.412Z,-3.4
2019-01-22T10:16:21.614Z,-3.4
2019-01-22T10:17:29.046Z,-3.4
2019-01-22T10:18:36.263Z,-3.4
2019-01-22T10:19:43.502Z,-3.3
2019-01-22T10:20:50.695Z,-3.3
2019-01-22T10:21:57.939Z,-3.3
2019-01-22T10:23:05.161Z,-3.4
2019-01-22T10:24:12.098Z,-3.4
2019-01-22T10:25:19.297Z,-3.4
2019-01-22T10:26:26.947Z,-3.3
2019-01-22T10:27:34.156Z,-3.3
2019-01-22T10:28:41.787Z,-3.2
2019-01-22T10:29:48.991Z,-3.2
2019-01-22T10:30:56.194Z,-3.2
2019-01-22T10:32:03.416Z,-3.2
2019-01-22T10:33:10.626Z,-3.2
2019-01-22T10:34:17.571Z,-3.2
2019-01-22T10:35:24.510Z,-3.1
2019-01-22T10:36:31.709Z,-3.1
2019-01-22T10:37:39.133Z,-3
2019-01-22T10:38:46.338Z,-2.9
2019-01-22T10:39:53.781Z,-2.9
2019-01-22T10:41:00.993Z,-2.8
2019-01-22T10:42:08.231Z,-2.7
2019-01-22T10:43:14.902Z,-2.6
2019-01-22T10:44:22.116Z,-2.6
2019-01-22T10:45:29.331Z,-2.5
2019-01-22T10:46:36.551Z,-2.6
2019-01-22T10:47:43.779Z,-2.6
2019-01-22T10:48:51.001Z,-2.7
2019-01-22T10:49:58.229Z,-2.6
2019-01-22T10:51:05.441Z,-2.7
2019-01-22T10:52:12.649Z,-2.7
2019-01-22T10:53:19.861Z,-2.7
2019-01-22T10:54:27.133Z,-2.6
2019-01-22T10:55:36.897Z,-2.5
2019-01-22T10:56:44.099Z,-2.5
2019-01-22T10:57:51.023Z,-2.5
2019-01-22T10:58:57.963Z,-2.6
2019-01-22T11:00:05.414Z,-2.6
2019-01-22T11:01:12.644Z,-2.7
2019-01-22T11:02:19.871Z,-2.7
2019-01-22T11:03:27.084Z,-2.7
2019-01-22T11:04:34.515Z,-2.6
2019-01-22T11:05:41.734Z,-2.5
2019-01-22T11:06:49.175Z,-2.5
2019-01-22T11:07:56.382Z,-2.5
2019-01-22T11:09:03.624Z,-2.6
2019-01-22T11:10:10.838Z,-2.7
2019-01-22T11:11:18.057Z,-2.7
2019-01-22T11:12:25.275Z,-2.6
2019-01-22T11:13:32.501Z,-2.6
2019-01-22T11:14:39.697Z,-2.5
2019-01-22T11:15:47.114Z,-2.5
2019-01-22T11:16:54.074Z,-2.4
2019-01-22T11:18:01.283Z,-2.5
2019-01-22T11:19:08.485Z,-2.5
2019-01-22T11:20:15.165Z,-2.6
2019-01-22T11:21:22.091Z,-2.6
2019-01-22T11:22:43.955Z,-2.6
2019-01-22T11:23:51.164Z,-2.5
2019-01-22T11:24:58.362Z,-2.5
2019-01-22T11:26:05.273Z,-2.5
2019-01-22T11:27:12.207Z,-2.5
2019-01-22T11:28:19.159Z,-2.5
2019-01-22T11:29:26.384Z,-2.5
2019-01-22T11:30:33.602Z,-2.4
2019-01-22T11:31:41.035Z,-2.4
2019-01-22T11:32:48.254Z,-2.4
2019-01-22T11:33:55.485Z,-2.4
2019-01-22T11:35:02.700Z,-2.4
2019-01-22T11:36:09.925Z,-2.4
2019-01-22T11:37:17.121Z,-2.4
2019-01-22T11:38:24.326Z,-2.4
2019-01-22T11:39:31.253Z,-2.3
2019-01-22T11:40:38.472Z,-2.3
2019-01-22T11:41:45.724Z,-2.3
2019-01-22T11:42:52.394Z,-2.4
2019-01-22T11:43:59.613Z,-2.5
2019-01-22T11:45:06.558Z,-2.5
2019-01-22T11:46:13.762Z,-2.4
2019-01-22T11:47:21.202Z,-2.4
2019-01-22T11:48:28.391Z,-2.4
2019-01-22T11:49:35.819Z,-2.5
2019-01-22T11:50:43.629Z,-2.5
2019-01-22T11:51:50.825Z,-2.4
2019-01-22T11:52:58.042Z,-2.4
2019-01-22T11:54:05.266Z,-2.5
2019-01-22T11:55:12.491Z,-2.4
2019-01-22T11:56:19.710Z,-2.5
2019-01-22T11:57:26.915Z,-2.6
2019-01-22T11:58:34.340Z,-2.7
2019-01-22T11:59:41.548Z,-2.7
2019-01-22T12:00:48.976Z,-2.7
2019-01-22T12:01:56.172Z,-2.6
2019-01-22T12:03:03.384Z,-2.6
2019-01-22T12:04:10.033Z,-2.5
2019-01-22T12:05:17.270Z,-2.6
2019-01-22T12:06:24.692Z,-2.6
2019-01-22T12:07:31.609Z,-2.7
2019-01-22T12:08:38.821Z,-2.7
2019-01-22T12:09:46.018Z,-2.7
2019-01-22T12:10:53.168Z,-2.7
2019-01-22T12:12:00.380Z,-2.7
2019-01-22T12:13:07.332Z,-2.7
2019-01-22T12:14:14.485Z,-2.6
2019-01-22T12:15:21.692Z,-2.6
2019-01-22T12:16:28.861Z,-2.6
2019-01-22T12:17:36.055Z,-2.6
2019-01-22T12:18:43.258Z,-2.6
2019-01-22T12:19:50.505Z,-2.7
2019-01-22T12:20:57.715Z,-2.7
2019-01-22T12:22:04.934Z,-2.7
2019-01-22T12:23:12.151Z,-2.8
2019-01-22T12:24:19.084Z,-2.8
2019-01-22T12:25:26.249Z,-2.7
2019-01-22T12:26:33.458Z,-2.7
2019-01-22T12:27:40.700Z,-2.7
2019-01-22T12:28:47.903Z,-2.7
2019-01-22T12:29:54.851Z,-2.7
2019-01-22T12:31:02.068Z,-2.7
2019-01-22T12:32:09.268Z,-2.7
2019-01-22T12:33:16.491Z,-2.7
2019-01-22T12:34:23.719Z,-2.7
2019-01-22T12:35:30.927Z,-2.7
2019-01-22T12:36:38.152Z,-2.7
2019-01-22T12:37:45.093Z,-2.7
2019-01-22T12:38:52.343Z,-2.8
2019-01-22T12:39:59.545Z,-2.8
2019-01-22T12:41:06.472Z,-2.8
2019-01-22T12:42:13.675Z,-2.8
2019-01-22T12:43:20.888Z,-2.8
2019-01-22T12:44:28.090Z,-2.7
2019-01-22T12:45:35.288Z,-2.7
2019-01-22T12:46:42.490Z,-2.7
2019-01-22T12:47:49.731Z,-2.6
2019-01-22T12:48:56.923Z,-2.5
2019-01-22T12:50:04.117Z,-2.5
2019-01-22T12:51:11.321Z,-2.4
2019-01-22T12:52:18.751Z,-2.4
2019-01-22T12:53:25.685Z,-2.4
2019-01-22T12:54:33.129Z,-2.4
2019-01-22T12:55:39.806Z,-2.5
2019-01-22T12:56:47.237Z,-2.5
2019-01-22T12:57:54.437Z,-2.6
2019-01-22T12:59:01.646Z,-2.6
2019-01-22T13:00:08.849Z,-2.7
2019-01-22T13:01:15.799Z,-2.7
2019-01-22T13:02:23.016Z,-2.7
2019-01-22T13:03:30.456Z,-2.8
2019-01-22T13:04:37.682Z,-2.8
2019-01-22T13:05:45.104Z,-2.7
2019-01-22T13:06:52.301Z,-2.7
2019-01-22T13:07:59.748Z,-2.8
2019-01-22T13:09:06.971Z,-2.7
2019-01-22T13:10:14.181Z,-2.8
2019-01-22T13:11:21.406Z,-2.7
2019-01-22T13:12:28.606Z,-2.7
2019-01-22T13:13:35.572Z,-2.6
2019-01-22T13:14:42.805Z,-2.6
2019-01-22T13:15:50.032Z,-2.6
2019-01-22T13:16:57.239Z,-2.7
2019-01-22T13:18:04.177Z,-2.7
2019-01-22T13:19:11.384Z,-2.7
2019-01-22T13:20:18.585Z,-2.8
2019-01-22T13:21:25.806Z,-2.8
2019-01-22T13:22:33.000Z,-2.8
2019-01-22T13:23:40.210Z,-2.8
2019-01-22T13:24:47.417Z,-2.7
2019-01-22T13:25:54.358Z,-2.7
2019-01-22T13:27:01.002Z,-2.7
2019-01-22T13:28:07.646Z,-2.7
2019-01-22T13:29:14.880Z,-2.7
2019-01-22T13:30:22.099Z,-2.7
2019-01-22T13:31:29.296Z,-2.7
2019-01-22T13:32:36.522Z,-2.7
2019-01-22T13:33:43.731Z,-2.6
2019-01-22T13:34:50.941Z,-2.6
2019-01-22T13:35:57.895Z,-2.6
2019-01-22T13:37:05.088Z,-2.6
2019-01-22T13:38:12.287Z,-2.7
2019-01-22T13:39:19.482Z,-2.7
2019-01-22T13:40:26.679Z,-2.7
2019-01-22T13:41:33.608Z,-2.7
2019-01-22T13:42:40.533Z,-2.8
2019-01-22T13:43:47.942Z,-2.8
2019-01-22T13:44:54.873Z,-2.7
2019-01-22T13:46:04.886Z,-2.7
2019-01-22T13:47:12.085Z,-2.7
2019-01-22T13:48:19.025Z,-2.7
2019-01-22T13:49:26.228Z,-2.7
2019-01-22T13:50:33.157Z,-2.7
2019-01-22T13:51:40.392Z,-2.8
2019-01-22T13:52:47.321Z,-2.8
2019-01-22T13:53:54.248Z,-2.8
2019-01-22T13:55:01.445Z,-2.8
2019-01-22T13:56:08.646Z,-2.7
2019-01-22T13:57:15.875Z,-2.8
2019-01-22T13:58:22.520Z,-2.9
2019-01-22T13:59:29.453Z,-2.9
2019-01-22T14:00:36.660Z,-2.9
2019-01-22T14:01:44.095Z,-2.9
2019-01-22T14:02:51.277Z,-2.9
2019-01-22T14:03:58.198Z,-2.9
2019-01-22T14:05:05.126Z,-2.8
2019-01-22T14:06:12.333Z,-2.8
2019-01-22T14:07:19.567Z,-2.8
2019-01-22T14:08:26.504Z,-2.8
2019-01-22T14:09:33.707Z,-2.8
2019-01-22T14:10:40.931Z,-2.8
2019-01-22T14:11:48.137Z,-2.8
2019-01-22T14:12:56.653Z,-2.9
2019-01-22T14:14:03.957Z,-2.9
2019-01-22T14:15:11.163Z,-2.9
2019-01-22T14:16:18.366Z,-2.8
2019-01-22T14:17:25.302Z,-2.9
2019-01-22T14:18:32.244Z,-2.9
2019-01-22T14:19:39.443Z,-2.9
2019-01-22T14:20:46.655Z,-2.9
2019-01-22T14:21:53.856Z,-2.9
2019-01-22T14:23:00.786Z,-2.9
2019-01-22T14:24:07.732Z,-2.9
2019-01-22T14:25:14.655Z,-2.9
2019-01-22T14:26:26.090Z,-3
2019-01-22T14:27:33.011Z,-2.9
2019-01-22T14:28:40.228Z,-3
2019-01-22T14:29:47.416Z,-3
2019-01-22T14:30:54.621Z,-2.9
2019-01-22T14:32:01.815Z,-2.9
2019-01-22T14:33:09.014Z,-2.9
2019-01-22T14:34:16.216Z,-2.8
2019-01-22T14:35:23.432Z,-2.8
2019-01-22T14:36:30.376Z,-2.9
2019-01-22T14:37:37.590Z,-2.9
2019-01-22T14:38:44.794Z,-2.9
2019-01-22T14:39:51.995Z,-2.8
2019-01-22T14:40:59.194Z,-2.9
2019-01-22T14:42:06.131Z,-2.9
2019-01-22T14:43:13.334Z,-2.9
2019-01-22T14:44:20.535Z,-2.9
2019-01-22T14:45:27.731Z,-2.9
2019-01-22T14:46:34.662Z,-3
2019-01-22T14:47:41.859Z,-3
2019-01-22T14:48:48.785Z,-3.1
2019-01-22T14:49:55.988Z,-3.1
2019-01-22T14:51:03.193Z,-3.1
2019-01-22T14:52:10.402Z,-3.1
2019-01-22T14:53:17.350Z,-3.1
2019-01-22T14:54:24.571Z,-3.2
2019-01-22T14:55:31.783Z,-3.3
2019-01-22T14:56:38.980Z,-3.2
2019-01-22T14:57:46.186Z,-3.2
2019-01-22T14:58:53.389Z,-3.3
2019-01-22T15:00:00.325Z,-3.3
2019-01-22T15:01:07.524Z,-3.3